Private Wetterstation Sandau
Wetterdaten: Februar 2013
Datum Temp. A. Feuchte A. Luftdruck Regen Wind Richtung Taupunkt Windchill
01.02.2013 5,1 C 86 % 997,3 hPa 3,6 l/m 5,9 km/h (2 Bft) W-SW 2,8 C 4,2 C
02.02.2013 0,2 C 86 % 1002,8 hPa 7,8 l/m 6,4 km/h (2 Bft) N-NW -1,9 C -1,3 C
03.02.2013 1,3 C 89 % 1007,8 hPa 3,1 l/m 13,2 km/h (3 Bft) W -0,3 C -2,3 C
04.02.2013 4,5 C 84 % 1002,6 hPa 5,2 l/m 9,9 km/h (2 Bft) W-SW 1,9 C 2,3 C
05.02.2013 1,8 C 87 % 995,8 hPa 2,6 l/m 13,1 km/h (3 Bft) W-SW -0,1 C -1,1 C
06.02.2013 1,5 C 83 % 999,3 hPa 1,0 l/m 9,8 km/h (2 Bft) W-SW -1,1 C -1,3 C
07.02.2013 0,7 C 88 % 1007,7 hPa 0,0 l/m 5,8 km/h (2 Bft) W-NW -1,1 C -0,6 C
08.02.2013 0,3 C 89 % 1012,6 hPa 1,6 l/m 5,6 km/h (1 Bft) NW -1,4 C -1,1 C
09.02.2013 -1,2 C 89 % 1017,9 hPa 2,6 l/m 3,5 km/h (1 Bft) N-NO -2,8 C -1,8 C
10.02.2013 -3,9 C 90 % 1016,4 hPa 0,0 l/m 3,0 km/h (1 Bft) SO -5,4 C -4,5 C
11.02.2013 -1,7 C 82 % 1012,7 hPa 1,0 l/m 7,8 km/h (2 Bft) O-SO -4,4 C -4,4 C
12.02.2013 -0,9 C 79 % 1016,1 hPa 0,0 l/m 6,2 km/h (2 Bft) NO -4,1 C -2,3 C
13.02.2013 -1,5 C 85 % 1026,4 hPa 0,0 l/m 0,3 km/h (0 Bft) N-NO -3,6 C -1,5 C
14.02.2013 -0,8 C 85 % 1022,8 hPa 0,0 l/m 10,9 km/h (2 Bft) SO -3,1 C -4,1 C
15.02.2013 0,1 C 89 % 1020,8 hPa 0,0 l/m 5,1 km/h (1 Bft) SO -1,6 C -1,3 C
16.02.2013 1,2 C 89 % 1025,2 hPa 0,0 l/m 3,6 km/h (1 Bft) O-SO -0,5 C 0,5 C
17.02.2013 1,0 C 92 % 1026,3 hPa 0,0 l/m 3,4 km/h (1 Bft) O-SO -0,2 C 1,0 C
18.02.2013 1,2 C 89 % 1020,9 hPa 0,0 l/m 5,3 km/h (1 Bft) W-SW -0,4 C -0,0 C
19.02.2013 0,5 C 88 % 1015,9 hPa 8,8 l/m 11,8 km/h (2 Bft) N-NO -1,2 C -3,0 C
20.02.2013 -1,3 C 80 % 1024,4 hPa 0,5 l/m 8,1 km/h (2 Bft) N-NO -4,3 C -4,2 C
21.02.2013 -1,4 C 79 % 1024,1 hPa 0,5 l/m 3,4 km/h (1 Bft) N-NO -4,5 C -2,0 C
22.02.2013 -3,3 C 77 % 1020,8 hPa 0,5 l/m 10,4 km/h (2 Bft) O-NO -6,8 C -7,2 C
23.02.2013 -1,4 C 85 % 1016,4 hPa 0,0 l/m 9,9 km/h (2 Bft) O-NO -3,6 C -4,6 C
24.02.2013 0,8 C 93 % 1016,9 hPa 0,0 l/m 8,5 km/h (2 Bft) O-NO -0,2 C -1,9 C
25.02.2013 1,6 C 93 % 1025,6 hPa 1,0 l/m 5,4 km/h (1 Bft) O-NO 0,5 C 0,8 C
26.02.2013 1,2 C 91 % 1033,4 hPa 0,0 l/m 9,0 km/h (2 Bft) NO -0,1 C -1,6 C
27.02.2013 2,2 C 87 % 1033,1 hPa 0,5 l/m 0,8 km/h (0 Bft) NO 0,3 C 2,2 C
28.02.2013 1,6 C 86 % 1025,9 hPa 0,0 l/m 8,6 km/h (2 Bft) W-SW -0,6 C -0,4 C
Min-Datum 11.02.13 12.02.13 02.02.13 15 Tage 01.02.13 - 11.02.13 11.02.13
Min-Zeit 04:16 14:11 01:56 - 15:01 - 04:16 00:06
Minimum -6,4 C 63 % 990,4 hPa - 0,0 km/h (0 Bft) - -7,8 C -11,9 C
Max-Datum 04.02.13 24.02.13 27.02.13 19.02.13 01.02.13 - 04.02.13 01.02.13
Max-Zeit 14:26 23:16 10:41 10:11 03:46 - 14:06 11:51
Maximum 7,8 C 95 % 1034,7 hPa 8,8 l/m 43,6 km/h
W-SW (6 Bft)
- 6,1 C 6,9 C
Durchschnitt 0,3 C 86 % 1016,7 hPa #40,4 l/m 7,0 km/h (2 Bft) O-NO -1,7 C -1,5 C

Durchschnitt Minimum Temp.-1,6 C
Durchschnitt Maximum Temp.2,5 C
(c) by David Heller